createdAt,value
2023-03-22T00:01:34.874Z,56.25
2023-03-22T00:04:05.771Z,56.40
2023-03-22T00:06:36.605Z,56.49
2023-03-22T00:09:07.418Z,56.49
2023-03-22T00:11:38.209Z,56.65
2023-03-22T00:14:08.804Z,56.69
2023-03-22T00:16:39.661Z,56.80
2023-03-22T00:19:10.436Z,56.98
2023-03-22T00:21:41.112Z,57.05
2023-03-22T00:24:11.980Z,57.16
2023-03-22T00:26:42.699Z,57.23
2023-03-22T00:29:13.503Z,57.39
2023-03-22T00:31:44.403Z,57.47
2023-03-22T00:34:15.438Z,57.65
2023-03-22T00:36:46.322Z,57.63
2023-03-22T00:39:17.236Z,57.78
2023-03-22T00:41:48.111Z,57.76
2023-03-22T00:44:18.952Z,57.79
2023-03-22T00:46:49.733Z,57.95
2023-03-22T00:49:20.639Z,58.11
2023-03-22T00:51:51.357Z,58.10
2023-03-22T00:54:22.193Z,58.08
2023-03-22T00:56:53.122Z,58.11
2023-03-22T00:59:24.281Z,58.20
2023-03-22T01:01:55.658Z,58.09
2023-03-22T01:04:27.068Z,58.39
2023-03-22T01:07:01.529Z,58.56
2023-03-22T01:09:33.976Z,58.54
2023-03-22T01:12:05.014Z,58.63
2023-03-22T01:14:35.814Z,58.44
2023-03-22T01:17:07.430Z,58.66
2023-03-22T01:19:38.219Z,58.74
2023-03-22T01:22:09.247Z,58.95
2023-03-22T01:24:39.968Z,58.89
2023-03-22T01:27:11.588Z,59.03
2023-03-22T01:29:42.417Z,58.90
2023-03-22T01:32:13.092Z,59.24
2023-03-22T01:34:43.895Z,59.14
2023-03-22T01:37:14.692Z,59.13
2023-03-22T01:39:45.533Z,59.36
2023-03-22T01:42:16.422Z,59.43
2023-03-22T01:45:00.477Z,59.46
2023-03-22T01:47:31.537Z,59.39
2023-03-22T01:50:02.350Z,59.38
2023-03-22T01:52:33.121Z,59.29
2023-03-22T01:55:03.925Z,59.59
2023-03-22T01:57:37.660Z,59.61
2023-03-22T02:00:11.185Z,59.76
2023-03-22T02:02:42.268Z,59.79
2023-03-22T02:05:13.555Z,59.85
2023-03-22T02:07:45.367Z,59.85
2023-03-22T02:10:17.166Z,59.91
2023-03-22T02:12:50.873Z,59.68
2023-03-22T02:15:23.116Z,59.94
2023-03-22T02:17:59.741Z,59.90
2023-03-22T02:20:47.766Z,59.88
2023-03-22T02:23:44.030Z,59.96
2023-03-22T02:26:35.039Z,60.01
2023-03-22T02:29:07.582Z,60.14
2023-03-22T02:32:03.632Z,60.23
2023-03-22T02:35:06.165Z,60.20
2023-03-22T02:37:50.727Z,60.41
2023-03-22T02:40:23.093Z,60.35
2023-03-22T02:42:56.204Z,60.44
2023-03-22T02:45:29.281Z,60.47
2023-03-22T02:48:02.053Z,60.46
2023-03-22T02:50:35.093Z,60.76
2023-03-22T02:53:06.343Z,60.64
2023-03-22T02:55:38.807Z,60.66
2023-03-22T02:58:11.585Z,60.73
2023-03-22T03:00:42.731Z,60.65
2023-03-22T03:03:18.501Z,60.90
2023-03-22T03:05:50.361Z,60.89
2023-03-22T03:08:21.177Z,61.00
2023-03-22T03:10:52.013Z,61.00
2023-03-22T03:13:22.702Z,60.99
2023-03-22T03:15:54.458Z,61.32
2023-03-22T03:18:32.432Z,61.12
2023-03-22T03:21:06.313Z,61.43
2023-03-22T03:23:39.615Z,61.39
2023-03-22T03:26:13.077Z,61.34
2023-03-22T03:28:46.742Z,61.31
2023-03-22T03:31:20.161Z,61.47
2023-03-22T03:33:52.933Z,61.45
2023-03-22T03:36:23.588Z,61.46
2023-03-22T03:38:54.372Z,61.58
2023-03-22T03:41:25.281Z,61.73
2023-03-22T03:43:58.451Z,61.82
2023-03-22T03:46:29.753Z,61.72
2023-03-22T03:49:00.642Z,61.84
2023-03-22T03:51:31.309Z,61.64
2023-03-22T03:54:02.085Z,61.76
2023-03-22T03:56:32.877Z,62.14
2023-03-22T03:59:03.562Z,61.95
2023-03-22T04:01:34.254Z,61.99
2023-03-22T04:04:05.101Z,62.06
2023-03-22T04:06:35.990Z,62.17
2023-03-22T04:09:07.262Z,62.19
2023-03-22T04:11:37.974Z,62.21
2023-03-22T04:14:08.712Z,62.39
2023-03-22T04:16:39.520Z,62.49
2023-03-22T04:19:10.441Z,62.39
2023-03-22T04:21:41.098Z,62.53
2023-03-22T04:24:14.474Z,62.40
2023-03-22T04:26:45.301Z,62.51
2023-03-22T04:29:16.137Z,62.58
2023-03-22T04:31:46.970Z,62.43
2023-03-22T04:34:17.678Z,62.35
2023-03-22T04:36:48.365Z,62.48
2023-03-22T04:39:19.122Z,62.59
2023-03-22T04:41:49.940Z,62.51
2023-03-22T04:44:22.848Z,62.53
2023-03-22T04:46:53.667Z,62.37
2023-03-22T04:49:24.570Z,62.42
2023-03-22T04:51:55.553Z,62.53
2023-03-22T04:54:26.401Z,62.65
2023-03-22T04:56:57.288Z,62.67
2023-03-22T04:59:27.997Z,62.61
2023-03-22T05:01:58.832Z,62.82
2023-03-22T05:04:29.626Z,62.78
2023-03-22T05:07:00.713Z,62.77
2023-03-22T05:09:31.655Z,62.67
2023-03-22T05:12:02.541Z,62.68
2023-03-22T05:14:33.402Z,62.73
2023-03-22T05:17:04.456Z,62.67
2023-03-22T05:19:35.341Z,62.62
2023-03-22T05:22:06.206Z,62.73
2023-03-22T05:24:36.976Z,62.80
2023-03-22T05:27:07.693Z,62.80
2023-03-22T05:29:38.660Z,62.78
2023-03-22T05:32:10.020Z,62.79
2023-03-22T05:34:43.026Z,62.82
2023-03-22T05:37:13.789Z,62.96
2023-03-22T05:39:44.918Z,62.94
2023-03-22T05:42:15.997Z,62.81
2023-03-22T05:44:46.891Z,63.06
2023-03-22T05:47:17.798Z,63.11
2023-03-22T05:49:48.594Z,63.26
2023-03-22T05:52:19.591Z,63.14
2023-03-22T05:54:53.636Z,63.26
2023-03-22T05:57:24.504Z,63.42
2023-03-22T05:59:55.290Z,63.38
2023-03-22T06:02:26.180Z,63.36
2023-03-22T06:04:56.972Z,63.33
2023-03-22T06:07:27.685Z,63.22
2023-03-22T06:09:58.359Z,63.06
2023-03-22T06:12:30.227Z,63.08
2023-03-22T06:15:01.253Z,63.40
2023-03-22T06:17:32.043Z,63.28
2023-03-22T06:20:06.822Z,63.27
2023-03-22T06:22:37.686Z,63.22
2023-03-22T06:25:09.786Z,63.08
2023-03-22T06:27:40.666Z,63.14
2023-03-22T06:30:11.935Z,63.49
2023-03-22T06:32:42.868Z,63.42
2023-03-22T06:35:13.626Z,63.15
2023-03-22T06:37:44.435Z,63.29
2023-03-22T06:40:15.485Z,63.54
2023-03-22T06:42:46.292Z,63.40
2023-03-22T06:45:17.834Z,63.47
2023-03-22T06:47:48.725Z,63.49
2023-03-22T06:50:19.601Z,63.59
2023-03-22T06:52:50.374Z,63.48
2023-03-22T06:55:21.230Z,63.63
2023-03-22T06:57:52.130Z,63.70
2023-03-22T07:00:23.333Z,63.76
2023-03-22T07:02:54.244Z,63.57
2023-03-22T07:05:25.005Z,63.62
2023-03-22T07:07:55.762Z,63.63
2023-03-22T07:10:26.669Z,63.69
2023-03-22T07:12:57.690Z,63.78
2023-03-22T07:15:28.380Z,63.86
2023-03-22T07:17:59.236Z,63.85
2023-03-22T07:20:30.195Z,63.93
2023-03-22T07:23:01.173Z,63.73
2023-03-22T07:25:31.916Z,63.84
2023-03-22T07:28:02.799Z,63.83
2023-03-22T07:30:35.930Z,64.23
2023-03-22T07:33:06.823Z,63.96
2023-03-22T07:35:38.073Z,64.01
2023-03-22T07:38:08.991Z,63.91
2023-03-22T07:40:40.052Z,64.13
2023-03-22T07:43:13.200Z,64.08
2023-03-22T07:45:43.941Z,64.10
2023-03-22T07:48:14.905Z,63.96
2023-03-22T07:50:45.837Z,64.04
2023-03-22T07:53:16.674Z,64.13
2023-03-22T07:55:47.513Z,64.29
2023-03-22T07:58:18.248Z,64.30
2023-03-22T08:00:49.824Z,64.06
2023-03-22T08:03:22.391Z,64.26
2023-03-22T08:05:53.274Z,64.13
2023-03-22T08:08:24.079Z,64.20
2023-03-22T08:10:54.845Z,64.08
2023-03-22T08:13:26.057Z,64.20
2023-03-22T08:15:56.837Z,64.10
2023-03-22T08:18:27.622Z,64.18
2023-03-22T08:20:59.338Z,64.46
2023-03-22T08:23:40.822Z,64.19
2023-03-22T08:26:12.194Z,64.31
2023-03-22T08:28:43.149Z,64.19
2023-03-22T08:31:15.422Z,64.28
2023-03-22T08:33:46.302Z,64.32
2023-03-22T08:36:18.341Z,64.40
2023-03-22T08:38:49.099Z,64.32
2023-03-22T08:41:19.795Z,64.36
2023-03-22T08:43:50.450Z,64.38
2023-03-22T08:46:21.361Z,64.58
2023-03-22T08:48:52.161Z,64.43
2023-03-22T08:51:23.218Z,64.48
2023-03-22T08:53:54.118Z,64.41
2023-03-22T08:56:24.989Z,64.41
2023-03-22T08:58:55.903Z,64.48
2023-03-22T09:01:27.182Z,64.42
2023-03-22T09:03:58.357Z,64.46
2023-03-22T09:06:29.350Z,64.63
2023-03-22T09:09:00.154Z,64.60
2023-03-22T09:11:31.224Z,64.61
2023-03-22T09:14:01.935Z,64.53
2023-03-22T09:16:32.937Z,64.43
2023-03-22T09:19:03.893Z,64.67
2023-03-22T09:21:34.768Z,64.77
2023-03-22T09:24:05.837Z,64.58
2023-03-22T09:26:37.132Z,64.84
2023-03-22T09:29:07.954Z,64.74
2023-03-22T09:31:38.834Z,64.74
2023-03-22T09:34:09.632Z,64.71
2023-03-22T09:36:40.624Z,64.52
2023-03-22T09:39:11.409Z,64.70
2023-03-22T09:41:42.690Z,64.68
2023-03-22T09:44:14.615Z,64.69
2023-03-22T09:46:46.433Z,64.57
2023-03-22T09:49:17.935Z,64.68
2023-03-22T09:51:49.628Z,64.71
2023-03-22T09:54:21.812Z,64.71
2023-03-22T09:56:53.084Z,64.65
2023-03-22T09:59:25.892Z,64.64
2023-03-22T10:01:57.921Z,64.82
2023-03-22T10:04:41.974Z,64.55
2023-03-22T10:07:16.373Z,64.62
2023-03-22T10:09:49.124Z,64.67
2023-03-22T10:12:21.473Z,64.80
2023-03-22T10:14:53.220Z,64.72
2023-03-22T10:17:24.629Z,64.62
2023-03-22T10:19:56.831Z,64.59
2023-03-22T10:22:29.845Z,64.62
2023-03-22T10:25:00.644Z,64.44
2023-03-22T10:27:31.746Z,64.60
2023-03-22T10:30:02.839Z,64.58
2023-03-22T10:32:45.210Z,64.45
2023-03-22T10:35:21.878Z,64.40
2023-03-22T10:37:52.814Z,64.40
2023-03-22T10:40:25.437Z,64.37
2023-03-22T10:42:56.872Z,64.50
2023-03-22T10:45:27.705Z,64.31
2023-03-22T10:48:00.281Z,64.51
2023-03-22T10:50:32.276Z,64.45
2023-03-22T10:53:05.021Z,64.46
2023-03-22T10:55:39.790Z,64.26
2023-03-22T10:58:15.763Z,64.33
2023-03-22T11:00:47.554Z,64.31
2023-03-22T11:03:34.975Z,64.37
2023-03-22T11:06:06.782Z,64.37
2023-03-22T11:08:45.622Z,64.36
2023-03-22T11:11:18.772Z,64.28
2023-03-22T11:13:53.260Z,64.16
2023-03-22T11:16:24.374Z,64.10
2023-03-22T11:18:55.471Z,63.88
2023-03-22T11:21:27.673Z,63.97
2023-03-22T11:23:59.239Z,64.06
2023-03-22T11:26:32.704Z,64.00
2023-03-22T11:29:14.273Z,63.94
2023-03-22T11:32:04.784Z,64.01
2023-03-22T11:34:36.771Z,63.82
2023-03-22T11:37:10.895Z,63.74
2023-03-22T11:39:42.440Z,63.77
2023-03-22T11:42:17.702Z,63.75
2023-03-22T11:44:48.548Z,63.87
2023-03-22T11:47:19.342Z,63.84
2023-03-22T11:49:50.589Z,63.89
2023-03-22T11:52:23.653Z,63.84
2023-03-22T11:54:54.766Z,63.76
2023-03-22T11:57:26.128Z,63.79
2023-03-22T11:59:58.373Z,63.76
2023-03-22T12:02:30.678Z,63.55
2023-03-22T12:05:03.256Z,63.47
2023-03-22T12:07:34.257Z,63.64
2023-03-22T12:10:06.862Z,63.71
2023-03-22T12:12:38.367Z,63.63
2023-03-22T12:15:12.617Z,63.66
2023-03-22T12:17:44.131Z,63.74
2023-03-22T12:20:17.248Z,63.65
2023-03-22T12:22:51.239Z,63.73
2023-03-22T12:25:22.589Z,63.64
2023-03-22T12:27:53.884Z,63.63
2023-03-22T12:30:25.437Z,63.56
2023-03-22T12:32:58.753Z,63.61
2023-03-22T12:35:30.850Z,63.65
2023-03-22T12:38:03.071Z,63.57
2023-03-22T12:40:34.648Z,63.32
2023-03-22T12:43:07.216Z,63.27
2023-03-22T12:45:39.590Z,63.35
2023-03-22T12:48:11.727Z,63.21
2023-03-22T12:50:44.064Z,63.20
2023-03-22T12:53:15.730Z,63.13
2023-03-22T12:55:47.337Z,63.17
2023-03-22T12:58:19.887Z,63.12
2023-03-22T13:00:51.366Z,63.20
2023-03-22T13:03:24.839Z,63.23
2023-03-22T13:06:02.642Z,63.33
2023-03-22T13:08:52.493Z,63.19
2023-03-22T13:11:26.284Z,63.15
2023-03-22T13:13:57.242Z,63.25
2023-03-22T13:16:41.459Z,63.22
2023-03-22T13:19:29.754Z,63.15
2023-03-22T13:22:21.088Z,63.25
2023-03-22T13:25:01.801Z,63.17
2023-03-22T13:27:38.011Z,63.19
2023-03-22T13:30:15.642Z,62.96
2023-03-22T13:32:53.176Z,62.91
2023-03-22T13:35:28.134Z,62.93
2023-03-22T13:38:03.169Z,62.78
2023-03-22T13:40:36.449Z,62.72
2023-03-22T13:43:15.138Z,62.76
2023-03-22T13:45:59.498Z,62.68
2023-03-22T13:48:33.607Z,62.77
2023-03-22T13:51:10.842Z,62.68
2023-03-22T13:53:41.908Z,62.44
2023-03-22T13:56:15.664Z,62.68
2023-03-22T13:58:55.325Z,62.61
2023-03-22T14:01:29.333Z,62.68
2023-03-22T14:04:01.394Z,62.89
2023-03-22T14:06:33.894Z,62.92
2023-03-22T14:09:06.502Z,62.94
2023-03-22T14:11:39.496Z,62.98
2023-03-22T14:14:12.225Z,62.97
2023-03-22T14:16:43.478Z,63.09
2023-03-22T14:19:17.657Z,63.13
